Time;durP1;ratioP1;P1;durP2;ratioP2;P2;SDS_P1;SDS_P2;PMS_P1;PMS_P2;Temp;Humidity;BMP_temperature;BMP_pressure;BME280_temperature;BME280_humidity;BME280_pressure;Samples;Min_cycle;Max_cycle;Signal;HPM_P1;HPM_P2
2023/06/12 00:00:46;;;;;;;4.13;2.93;;;22.90;49.20;;;25.50;37.13;101730.50;5056533;28;20189;-64
2023/06/12 00:03:14;;;;;;;4.43;3.27;;;22.80;49.50;;;25.43;37.24;101730.63;5055248;28;20297;-64
2023/06/12 00:05:43;;;;;;;5.40;3.17;;;22.80;49.70;;;25.39;37.73;101734.88;5056237;28;20259;-64
2023/06/12 00:08:11;;;;;;;5.60;3.07;;;22.70;49.80;;;25.34;37.23;101734.00;5046896;28;20697;-64
2023/06/12 00:10:39;;;;;;;6.27;3.40;;;22.70;50.20;;;25.26;37.98;101723.63;5036638;28;20523;-64
2023/06/12 00:13:07;;;;;;;4.70;3.00;;;22.60;50.30;;;25.19;37.61;101733.78;5037461;28;20215;-64
2023/06/12 00:15:34;;;;;;;3.07;2.73;;;22.50;50.40;;;25.13;38.46;101732.88;5041018;28;20242;-63
2023/06/12 00:18:02;;;;;;;6.20;3.30;;;22.50;51.00;;;25.11;38.50;101732.31;5036255;28;20198;-64
2023/06/12 00:20:29;;;;;;;4.07;3.27;;;22.40;51.20;;;25.07;37.90;101725.78;5035935;28;20194;-64
2023/06/12 00:22:58;;;;;;;3.83;3.17;;;22.40;51.40;;;25.07;38.13;101730.34;5034968;28;20241;-64
2023/06/12 00:25:26;;;;;;;6.00;3.10;;;22.40;52.40;;;25.03;38.06;101732.69;5040972;28;20678;-63
2023/06/12 00:27:53;;;;;;;4.60;2.90;;;22.40;51.60;;;24.99;38.34;101733.44;5056129;28;20194;-62
2023/06/12 00:30:20;;;;;;;4.03;3.17;;;22.30;52.00;;;24.94;38.47;101733.38;5041314;28;20285;-63
2023/06/12 00:32:47;;;;;;;4.43;2.90;;;22.30;52.30;;;24.89;38.79;101732.22;5035607;28;20274;-65
2023/06/12 00:35:18;;;;;;;5.60;3.40;;;22.30;52.70;;;24.88;38.42;101729.78;5037112;28;20225;-64
2023/06/12 00:37:45;;;;;;;3.33;3.03;;;22.20;52.50;;;24.86;39.11;101729.22;5036161;28;20221;-63
2023/06/12 00:40:14;;;;;;;5.80;3.30;;;22.20;53.30;;;24.82;38.75;101736.13;5035565;28;20209;-63
2023/06/12 00:42:47;;;;;;;4.87;3.40;;;22.20;52.90;;;24.80;38.82;101732.88;5047314;28;20252;-65
2023/06/12 00:45:16;;;;;;;3.67;3.07;;;22.10;52.90;;;24.74;39.36;101731.94;5037669;28;20238;-64
2023/06/12 00:47:48;;;;;;;10.57;3.77;;;22.10;53.20;;;24.70;39.26;101730.78;5036570;28;20291;-64
2023/06/12 00:50:17;;;;;;;5.03;3.47;;;22.10;53.40;;;24.68;39.48;101729.41;5036536;28;20631;-62
2023/06/12 00:52:47;;;;;;;3.87;3.40;;;22.00;53.60;;;24.65;39.70;101736.09;5036200;28;20190;-64
2023/06/12 00:55:15;;;;;;;4.77;3.00;;;22.00;53.70;;;24.62;39.56;101733.06;5054220;28;20233;-63
2023/06/12 00:57:44;;;;;;;5.17;3.70;;;22.00;53.80;;;24.59;39.75;101728.16;5055336;28;20705;-65
2023/06/12 01:00:14;;;;;;;5.93;3.53;;;22.00;54.10;;;24.57;39.88;101722.22;5055744;28;20190;-63
2023/06/12 01:02:45;;;;;;;3.20;2.90;;;21.90;54.10;;;24.53;39.80;101726.47;5054604;28;20257;-63
2023/06/12 01:05:17;;;;;;;6.50;3.07;;;21.90;54.30;;;24.46;39.91;101723.09;5055503;28;20644;-64
2023/06/12 01:07:51;;;;;;;7.87;3.90;;;21.80;54.60;;;24.40;40.08;101721.34;5049552;28;20191;-63
2023/06/12 01:10:28;;;;;;;4.03;3.23;;;21.70;54.70;;;24.32;40.38;101717.19;5035326;28;20636;-63
2023/06/12 01:12:57;;;;;;;4.40;3.50;;;21.70;55.00;;;24.27;40.62;101721.66;5034855;28;20193;-63
2023/06/12 01:15:24;;;;;;;7.63;3.20;;;21.60;55.20;;;24.22;40.47;101723.19;5034802;28;20242;-63
2023/06/12 01:17:51;;;;;;;5.87;3.57;;;21.60;55.60;;;24.17;40.69;101720.44;5035174;28;20195;-63
2023/06/12 01:20:18;;;;;;;4.27;3.13;;;21.50;55.70;;;24.13;40.78;101718.44;5035215;28;20199;-62
2023/06/12 01:23:05;;;;;;;6.17;3.10;;;21.50;56.60;;;24.04;41.15;101712.59;5045008;28;20288;-63
2023/06/12 01:26:18;;;;;;;4.33;3.33;;;21.40;56.10;;;24.00;41.18;101710.63;5049002;28;20774;-62
2023/06/12 01:29:28;;;;;;;6.23;3.63;;;21.40;56.20;;;23.96;40.83;101718.34;5034570;28;20191;-63
2023/06/12 01:32:05;;;;;;;6.47;3.90;;;21.40;56.50;;;23.97;41.19;101714.59;5037632;28;20185;-62
2023/06/12 01:34:37;;;;;;;4.83;3.30;;;21.30;56.50;;;23.95;41.25;101722.09;5053272;28;20267;-63
2023/06/12 01:37:17;;;;;;;8.70;3.33;;;21.30;56.80;;;23.92;41.41;101717.19;5054460;28;20289;-63
2023/06/12 01:39:55;;;;;;;5.03;3.03;;;21.30;57.00;;;23.91;41.59;101712.88;5054284;28;20284;-61
2023/06/12 01:42:25;;;;;;;3.83;3.33;;;21.30;57.20;;;23.92;41.71;101717.19;5043440;28;20251;-63
2023/06/12 01:44:52;;;;;;;4.20;3.27;;;21.20;57.20;;;23.91;41.41;101714.75;5053810;28;20745;-63
2023/06/12 01:47:22;;;;;;;5.83;3.53;;;21.20;57.30;;;23.89;41.54;101719.56;5054870;28;20599;-63
2023/06/12 01:49:49;;;;;;;4.03;2.93;;;21.20;57.60;;;23.86;41.86;101714.63;5054286;28;20646;-63
2023/06/12 01:52:16;;;;;;;7.00;3.30;;;21.20;57.70;;;23.87;41.53;101708.19;5046215;28;20694;-63
2023/06/12 01:54:47;;;;;;;7.27;3.20;;;21.10;57.80;;;23.84;41.63;101709.50;5033861;28;20593;-63
2023/06/12 01:57:15;;;;;;;3.60;3.23;;;21.10;57.70;;;23.83;41.77;101723.19;5034236;28;20592;-62
2023/06/12 01:59:43;;;;;;;4.33;3.37;;;21.10;57.80;;;23.80;42.01;101708.31;5033933;28;20747;-64
2023/06/12 02:02:10;;;;;;;5.30;3.43;;;21.10;58.80;;;23.77;41.90;101719.56;5047419;28;20233;-61
2023/06/12 02:04:38;;;;;;;5.83;3.40;;;21.10;58.10;;;23.75;41.92;101705.53;5053269;28;20267;-62
2023/06/12 02:07:07;;;;;;;5.70;3.17;;;21.00;58.20;;;23.73;42.00;101704.97;5053664;28;20237;-63
2023/06/12 02:09:34;;;;;;;5.17;4.00;;;21.00;58.20;;;23.68;42.08;101704.84;5034080;28;20286;-62
2023/06/12 02:12:01;;;;;;;23.53;17.83;;;21.00;58.30;;;23.64;42.24;101701.00;5034292;28;20623;-62
2023/06/12 02:14:28;;;;;;;7.40;6.57;;;21.00;58.70;;;23.63;42.48;101707.44;5033538;28;20265;-64
2023/06/12 02:16:55;;;;;;;6.57;3.93;;;20.90;58.80;;;23.61;42.12;101709.53;5034220;28;20323;-62
2023/06/12 02:19:25;;;;;;;7.00;3.80;;;20.90;58.60;;;23.55;42.36;101710.50;5033976;28;20278;-63
2023/06/12 02:21:55;;;;;;;6.43;3.93;;;20.80;58.80;;;23.51;42.60;101709.31;5037735;28;20671;-64
2023/06/12 02:24:26;;;;;;;5.00;3.67;;;20.80;59.10;;;23.48;42.74;101707.13;5053153;28;20225;-62
2023/06/12 02:26:53;;;;;;;6.30;3.87;;;20.80;59.50;;;23.46;42.65;101707.34;5053887;28;20197;-63
2023/06/12 02:29:20;;;;;;;4.47;3.50;;;20.80;59.30;;;23.42;42.85;101699.97;5053759;28;20647;-63
2023/06/12 02:31:47;;;;;;;4.93;4.00;;;20.70;59.60;;;23.39;42.60;101711.22;5049795;28;20205;-63
2023/06/12 02:34:14;;;;;;;4.57;3.37;;;20.60;59.60;;;23.36;42.96;101711.69;5035940;28;20611;-63
2023/06/12 02:36:41;;;;;;;4.10;3.30;;;20.60;59.70;;;23.32;43.50;101711.28;5053758;28;20550;-63
2023/06/12 02:39:13;;;;;;;5.17;3.57;;;20.60;60.00;;;23.32;43.06;101713.19;5053797;28;20189;-62
2023/06/12 02:41:41;;;;;;;7.07;4.03;;;20.60;60.10;;;23.30;43.22;101713.41;5051992;28;20200;-61
2023/06/12 02:44:08;;;;;;;4.43;3.43;;;20.60;61.00;;;23.32;43.23;101715.88;5053691;28;20213;-61
2023/06/12 02:46:53;;;;;;;3.70;3.10;;;20.60;60.20;;;23.29;42.92;101716.34;5053041;28;20193;-61
2023/06/12 02:49:21;;;;;;;4.90;3.60;;;20.60;60.20;;;23.31;43.19;101708.84;5053671;28;20213;-62
2023/06/12 02:51:49;;;;;;;6.83;3.87;;;20.60;60.30;;;23.32;43.34;101715.88;5052146;28;20614;-63
2023/06/12 02:54:20;;;;;;;4.53;3.47;;;20.60;60.40;;;23.32;43.14;101713.97;5033010;28;20200;-63
2023/06/12 02:56:48;;;;;;;4.47;3.43;;;20.60;60.30;;;23.31;43.25;101714.22;5049645;28;20194;-63
2023/06/12 02:59:17;;;;;;;5.90;3.63;;;20.60;60.30;;;23.29;43.15;101714.47;5053081;28;20269;-63
2023/06/12 03:01:45;;;;;;;5.50;3.43;;;20.50;60.30;;;23.28;43.34;101712.00;5049393;28;20217;-65
2023/06/12 03:04:13;;;;;;;7.40;4.57;;;20.60;60.40;;;23.27;43.24;101718.44;5053049;28;20638;-64
2023/06/12 03:06:40;;;;;;;6.13;4.03;;;20.50;60.30;;;23.23;43.14;101714.56;5053458;28;20289;-62
2023/06/12 03:09:08;;;;;;;4.70;3.57;;;20.50;60.60;;;23.21;43.30;101713.97;5036318;28;20599;-63
2023/06/12 03:11:37;;;;;;;6.30;3.73;;;20.50;60.70;;;23.19;43.27;101716.91;5045630;28;20201;-63
2023/06/12 03:14:05;;;;;;;4.87;3.93;;;20.50;60.80;;;23.17;43.40;101713.66;5050606;28;20542;-63
2023/06/12 03:16:32;;;;;;;6.83;3.60;;;20.40;60.60;;;23.15;43.71;101714.94;5033442;28;20202;-62
2023/06/12 03:19:00;;;;;;;6.33;3.57;;;20.40;60.80;;;23.13;43.70;101711.66;5033610;28;20245;-63
2023/06/12 03:21:27;;;;;;;5.77;4.13;;;20.40;61.10;;;23.11;43.39;101709.19;5032877;28;20544;-63
2023/06/12 03:23:54;;;;;;;6.80;4.43;;;20.40;61.10;;;23.12;43.70;101710.00;5046242;28;20649;-63
2023/06/12 03:26:20;;;;;;;7.93;4.53;;;20.30;61.20;;;23.11;43.57;101716.44;5052926;28;20217;-63
2023/06/12 03:28:50;;;;;;;5.77;3.77;;;20.30;61.00;;;23.08;43.81;101717.75;5053636;28;20224;-63
2023/06/12 03:31:17;;;;;;;5.30;4.53;;;20.30;61.30;;;23.03;43.96;101711.41;5051547;28;20223;-63
2023/06/12 03:33:44;;;;;;;6.63;3.87;;;20.30;61.40;;;23.01;43.96;101719.69;5032800;28;20191;-63
2023/06/12 03:36:12;;;;;;;6.67;3.80;;;20.30;61.70;;;23.01;43.93;101718.91;5033171;28;20241;-63
2023/06/12 03:38:38;;;;;;;4.80;3.73;;;20.30;61.70;;;22.99;44.14;101721.78;5033373;28;20271;-64
2023/06/12 03:41:05;;;;;;;4.33;3.60;;;20.20;61.90;;;22.98;44.15;101713.97;5043150;28;20584;-63
2023/06/12 03:43:32;;;;;;;6.60;3.47;;;20.20;62.10;;;22.98;44.39;101709.44;5051692;28;20343;-64
2023/06/12 03:46:01;;;;;;;5.33;4.23;;;20.20;62.00;;;22.96;43.74;101706.16;5052677;28;20246;-63
2023/06/12 03:48:28;;;;;;;4.53;3.93;;;20.20;62.00;;;22.94;44.19;101712.81;5052732;28;20202;-63
2023/06/12 03:50:55;;;;;;;7.77;4.20;;;20.20;62.00;;;22.90;44.27;101712.44;5052867;28;20228;-63
2023/06/12 03:53:22;;;;;;;7.20;4.33;;;20.20;62.30;;;22.89;44.16;101716.19;5052547;28;20213;-63
2023/06/12 03:55:49;;;;;;;5.33;4.07;;;20.10;62.30;;;22.89;44.59;101717.00;5058212;28;20221;-66
2023/06/12 03:58:16;;;;;;;4.63;3.93;;;20.10;62.20;;;22.90;44.35;101718.66;5054258;28;20293;-61
2023/06/12 04:00:45;;;;;;;4.90;3.50;;;20.20;62.50;;;22.92;44.43;101717.59;5047492;28;20193;-62
2023/06/12 04:03:17;;;;;;;6.17;4.43;;;20.20;62.60;;;22.93;44.37;101717.38;5064764;28;20206;-63
2023/06/12 04:05:45;;;;;;;7.60;4.43;;;20.20;62.40;;;22.94;44.50;101716.28;5065794;28;20674;-64
2023/06/12 04:08:12;;;;;;;5.57;3.90;;;20.20;62.30;;;22.94;44.37;101723.56;5063530;28;20271;-63
2023/06/12 04:10:40;;;;;;;5.63;4.20;;;20.20;62.20;;;22.92;43.96;101715.72;5053194;28;20279;-63
2023/06/12 04:13:07;;;;;;;4.30;3.90;;;20.20;62.30;;;22.92;44.17;101719.22;5051557;28;20198;-64
2023/06/12 04:15:36;;;;;;;5.93;4.07;;;20.20;62.40;;;22.92;44.15;101721.09;5052768;28;20214;-63
2023/06/12 04:18:04;;;;;;;6.27;3.70;;;20.20;62.20;;;22.93;44.43;101722.72;5049998;28;20205;-63
2023/06/12 04:20:33;;;;;;;6.37;3.87;;;20.20;62.30;;;22.94;44.19;101723.56;5050481;28;20217;-63
2023/06/12 04:23:04;;;;;;;5.17;4.20;;;20.10;62.40;;;22.95;44.13;101726.00;5047001;28;20282;-63
2023/06/12 04:25:32;;;;;;;5.70;4.33;;;20.20;62.40;;;22.94;44.40;101723.56;5050859;28;20213;-63
2023/06/12 04:28:00;;;;;;;7.17;5.13;;;20.20;62.30;;;22.93;44.06;101717.38;5055118;28;20194;-62
2023/06/12 04:30:27;;;;;;;5.20;4.47;;;20.20;62.20;;;22.92;44.05;101719.22;5050489;28;20202;-61
2023/06/12 04:32:56;;;;;;;5.80;4.30;;;20.10;62.20;;;22.90;44.13;101724.00;5035575;28;20201;-63
2023/06/12 04:35:23;;;;;;;6.03;4.23;;;20.10;62.40;;;22.89;44.46;101719.69;5035789;28;20257;-65
2023/06/12 04:37:52;;;;;;;7.10;4.57;;;20.10;62.30;;;22.90;44.41;101721.31;5044525;28;20193;-65
2023/06/12 04:40:24;;;;;;;6.70;4.30;;;20.10;62.40;;;22.90;44.08;101724.00;5054710;28;20190;-67
2023/06/12 04:42:56;;;;;;;6.83;3.97;;;20.10;62.40;;;22.90;44.18;101724.00;5055423;28;20197;-64
2023/06/12 04:45:23;;;;;;;6.67;4.07;;;20.10;62.50;;;22.92;43.97;101721.91;5055577;28;20218;-65
2023/06/12 04:47:51;;;;;;;6.97;4.63;;;20.10;62.50;;;22.96;44.15;101718.78;5045133;28;20199;-62
2023/06/12 04:50:18;;;;;;;5.73;4.00;;;20.20;62.50;;;23.01;44.07;101717.00;5036021;28;20340;-63
2023/06/12 04:52:48;;;;;;;4.43;4.03;;;20.20;62.50;;;23.04;44.09;101713.88;5035489;28;20186;-61
2023/06/12 04:55:22;;;;;;;8.53;5.17;;;20.20;62.60;;;23.12;44.18;101715.38;5038869;28;20650;-63
2023/06/12 04:57:52;;;;;;;6.27;4.00;;;20.30;62.40;;;23.17;43.73;101720.88;5055245;28;20225;-64
2023/06/12 05:00:20;;;;;;;8.33;4.53;;;20.30;62.10;;;23.22;43.49;101716.47;5054126;28;20194;-64
2023/06/12 05:02:49;;;;;;;6.43;4.17;;;20.40;62.00;;;23.24;43.38;101711.66;5050513;28;20285;-65
2023/06/12 05:05:16;;;;;;;11.27;5.87;;;20.40;61.60;;;23.30;43.35;101717.94;5052733;28;20218;-65
2023/06/12 05:07:46;;;;;;;6.23;4.80;;;20.50;61.50;;;23.35;43.19;101720.78;5049272;28;20281;-62
2023/06/12 05:10:14;;;;;;;6.10;4.80;;;20.50;61.30;;;23.39;42.96;101721.97;5035023;28;20198;-65
2023/06/12 05:12:42;;;;;;;6.37;4.50;;;20.50;61.20;;;23.44;42.96;101722.06;5034978;28;20244;-62
2023/06/12 05:15:10;;;;;;;6.07;4.77;;;20.60;61.10;;;23.50;42.72;101719.28;5034608;28;20694;-64
2023/06/12 05:17:37;;;;;;;5.37;4.70;;;20.70;60.90;;;23.54;42.49;101719.59;5034531;28;20248;-64
2023/06/12 05:20:09;;;;;;;6.87;5.60;;;20.70;60.30;;;23.56;42.54;101725.56;5037704;28;20335;-64
2023/06/12 05:22:37;;;;;;;8.33;4.77;;;20.80;60.20;;;23.57;42.36;101721.81;5054143;28;20178;-63
2023/06/12 05:25:05;;;;;;;4.87;4.23;;;20.80;60.00;;;23.62;42.24;101727.31;5054231;28;20785;-64
2023/06/12 05:27:32;;;;;;;8.13;5.60;;;20.80;59.90;;;23.63;41.99;101723.56;5054290;28;20255;-63
2023/06/12 05:30:01;;;;;;;9.37;6.77;;;20.90;59.70;;;23.63;42.08;101728.94;5054655;28;20606;-63
2023/06/12 05:32:28;;;;;;;6.20;5.40;;;20.90;59.50;;;23.66;42.03;101724.97;5054077;28;20204;-64
2023/06/12 05:34:55;;;;;;;7.23;5.37;;;20.90;60.20;;;23.73;42.01;101729.16;5053675;28;20217;-62
2023/06/12 05:37:22;;;;;;;9.77;5.63;;;21.00;59.50;;;23.77;41.91;101721.44;5052465;28;20198;-63
2023/06/12 05:39:49;;;;;;;8.33;6.50;;;21.00;59.50;;;23.82;42.00;101722.34;5051864;28;20189;-64
2023/06/12 05:42:16;;;;;;;5.23;4.50;;;21.00;59.40;;;23.88;41.81;101726.78;5053555;28;20210;-62
2023/06/12 05:44:43;;;;;;;6.57;5.50;;;21.00;59.30;;;23.95;41.41;101722.09;5053380;28;20698;-65
2023/06/12 05:47:11;;;;;;;50.33;39.20;;;21.10;59.30;;;23.96;41.56;101729.09;5053903;28;20197;-64
2023/06/12 05:49:38;;;;;;;9.83;7.90;;;21.20;59.20;;;24.02;41.63;101728.16;5054058;28;20253;-64
2023/06/12 05:52:06;;;;;;;6.80;5.87;;;21.20;59.20;;;24.08;41.65;101732.59;5053672;28;20228;-63
2023/06/12 05:54:33;;;;;;;8.97;7.73;;;21.30;59.20;;;24.14;41.47;101730.84;5039113;28;20210;-63
2023/06/12 05:57:02;;;;;;;9.63;7.93;;;21.30;59.00;;;24.19;41.34;101721.00;5051949;28;20585;-64
2023/06/12 05:59:29;;;;;;;8.37;6.03;;;21.40;58.90;;;24.26;41.10;101723.53;5045745;28;20285;-64
2023/06/12 06:01:56;;;;;;;6.00;5.50;;;21.40;58.70;;;24.37;41.33;101719.13;5045014;28;20221;-62
2023/06/12 06:04:25;;;;;;;5.53;5.03;;;21.50;58.70;;;24.46;41.08;101728.47;5052924;28;20303;-62
2023/06/12 06:06:53;;;;;;;6.83;6.17;;;21.60;58.70;;;24.54;40.83;101725.38;5053276;28;20186;-65
2023/06/12 06:09:21;;;;;;;7.90;6.33;;;21.60;58.50;;;24.61;40.99;101728.72;5033385;28;20293;-65
2023/06/12 06:11:48;;;;;;;5.70;5.20;;;21.70;58.30;;;24.69;40.42;101728.34;5033593;28;20279;-65
2023/06/12 06:14:17;;;;;;;9.67;6.20;;;21.80;58.20;;;24.77;40.00;101731.47;5032654;28;20275;-62
2023/06/12 06:16:44;;;;;;;8.27;6.63;;;21.90;58.10;;;24.86;40.08;101729.22;5033353;28;20665;-62
2023/06/12 06:19:20;;;;;;;6.30;5.33;;;22.00;58.10;;;24.92;40.03;101739.00;5036879;28;20211;-65
2023/06/12 06:21:48;;;;;;;7.90;6.03;;;22.00;57.80;;;25.01;39.85;101734.81;5052779;28;20269;-63
2023/06/12 06:24:15;;;;;;;6.77;5.90;;;22.10;57.70;;;25.10;40.08;101744.16;5052701;28;20220;-64
2023/06/12 06:26:42;;;;;;;7.33;6.30;;;22.20;57.60;;;25.19;39.50;101739.97;5045902;28;20202;-64
2023/06/12 06:29:09;;;;;;;6.93;6.27;;;22.30;57.50;;;25.30;39.89;101749.84;5033136;28;20674;-64
2023/06/12 06:31:41;;;;;;;9.00;7.70;;;22.30;57.40;;;25.35;39.28;101749.91;5048428;28;20240;-65
2023/06/12 06:34:10;;;;;;;11.43;7.03;;;22.40;57.20;;;25.41;39.16;101759.72;5032634;28;20274;-63
2023/06/12 06:36:38;;;;;;;8.07;6.97;;;22.50;57.10;;;25.47;39.47;101752.53;5033147;28;20244;-63
2023/06/12 06:39:07;;;;;;;7.90;6.77;;;22.60;56.90;;;25.54;39.15;101759.41;5032396;28;20195;-63
2023/06/12 06:41:34;;;;;;;7.13;6.40;;;22.70;57.00;;;25.65;39.61;101751.47;5047397;28;20220;-65
2023/06/12 06:44:01;;;;;;;8.77;6.67;;;22.80;57.00;;;25.75;38.75;101755.09;5038784;28;20228;-65
2023/06/12 06:46:28;;;;;;;10.03;7.00;;;22.80;56.80;;;25.85;38.50;101754.41;5033229;28;20218;-64
2023/06/12 06:48:55;;;;;;;7.33;6.63;;;22.90;56.40;;;25.97;38.48;101753.22;5033057;28;20186;-63
2023/06/12 06:51:22;;;;;;;8.80;6.67;;;23.00;56.40;;;26.07;38.51;101758.75;5033163;28;20270;-64
2023/06/12 06:53:49;;;;;;;19.20;16.57;;;23.10;56.30;;;26.17;38.33;101763.47;5032762;28;20289;-63
2023/06/12 06:56:17;;;;;;;12.90;11.60;;;23.20;55.90;;;26.30;37.64;101757.69;5033427;28;20265;-63
2023/06/12 06:58:44;;;;;;;10.00;8.87;;;23.30;55.40;;;26.42;37.66;101766.44;5032667;28;20194;-66
2023/06/12 07:01:11;;;;;;;8.73;7.90;;;23.40;54.80;;;26.45;36.56;101771.34;5039960;28;20193;-63
2023/06/12 07:03:39;;;;;;;9.83;6.80;;;23.50;53.70;;;26.48;36.71;101760.03;5052315;28;20194;-64
2023/06/12 07:06:07;;;;;;;7.83;6.10;;;23.60;53.80;;;26.59;37.54;101763.66;5052532;28;20332;-63
2023/06/12 07:08:34;;;;;;;7.73;6.30;;;23.70;54.00;;;26.71;36.70;101767.84;5039931;28;20273;-65
2023/06/12 07:11:01;;;;;;;9.23;7.27;;;23.80;54.10;;;26.84;36.57;101761.19;5032988;28;20225;-65
2023/06/12 07:13:29;;;;;;;10.80;7.60;;;23.90;53.80;;;26.85;35.60;101771.78;5032826;28;20205;-64
2023/06/12 07:15:56;;;;;;;9.63;8.23;;;24.00;52.00;;;26.86;36.51;101773.38;5037826;28;20214;-64
2023/06/12 07:18:27;;;;;;;8.80;7.90;;;24.10;52.30;;;26.92;36.43;101759.91;5052375;28;20190;-68
2023/06/12 07:20:54;;;;;;;9.00;8.17;;;24.20;52.40;;;27.02;36.20;101770.81;5052564;28;20477;-65
2023/06/12 07:23:22;;;;;;;8.17;7.37;;;24.30;52.40;;;27.08;36.55;101775.19;5052445;28;20186;-64
2023/06/12 07:25:49;;;;;;;8.70;7.63;;;24.30;52.50;;;27.15;36.17;101770.38;5052439;28;20217;-64
2023/06/12 07:28:16;;;;;;;8.93;8.13;;;24.40;52.90;;;27.23;35.79;101768.00;5052598;28;20284;-63
2023/06/12 07:30:45;;;;;;;11.63;9.33;;;24.50;52.20;;;27.34;36.22;101768.88;5052590;28;20186;-63
2023/06/12 07:33:14;;;;;;;8.90;8.00;;;24.60;52.10;;;27.44;35.90;101771.69;5051805;28;20192;-64
2023/06/12 07:35:41;;;;;;;9.40;8.50;;;24.70;52.20;;;27.46;35.85;101772.25;5056800;28;20647;-63
2023/06/12 07:38:08;;;;;;;10.47;9.13;;;24.80;52.30;;;27.54;35.91;101763.66;5056021;28;20619;-63
2023/06/12 07:40:35;;;;;;;15.90;14.33;;;24.90;52.00;;;27.66;35.74;101769.66;5055150;28;20233;-64
2023/06/12 07:43:02;;;;;;;9.23;8.33;;;25.00;52.10;;;27.81;35.31;101768.94;5055751;28;20233;-65
2023/06/12 07:45:30;;;;;;;9.90;9.00;;;25.00;51.60;;;27.90;35.48;101770.88;5054585;28;20241;-62
2023/06/12 07:47:58;;;;;;;12.57;9.73;;;25.10;51.50;;;27.99;34.97;101772.03;5055988;28;20194;-63
2023/06/12 07:50:25;;;;;;;9.30;8.33;;;25.20;51.20;;;28.12;35.35;101773.44;5044837;28;20567;-63
2023/06/12 07:52:52;;;;;;;9.63;8.70;;;25.40;51.00;;;28.23;35.07;101771.56;5050931;28;20666;-64
2023/06/12 07:55:20;;;;;;;9.70;8.70;;;25.50;51.10;;;28.25;34.50;101763.97;5054696;28;20229;-65
2023/06/12 07:57:47;;;;;;;9.50;8.07;;;25.50;50.20;;;28.25;34.33;101770.22;5055703;28;20201;-65
2023/06/12 08:00:15;;;;;;;9.20;7.73;;;25.60;49.30;;;28.28;34.22;101774.28;5054692;28;20194;-64
2023/06/12 08:02:42;;;;;;;9.60;8.80;;;25.70;49.20;;;28.34;33.89;101775.91;5056194;28;20388;-64
2023/06/12 08:05:11;;;;;;;9.30;8.03;;;25.70;49.30;;;28.39;33.78;101775.94;5055097;28;20279;-64
2023/06/12 08:07:38;;;;;;;10.17;9.23;;;25.80;48.40;;;28.36;33.62;101771.06;5037711;28;20245;-64
2023/06/12 08:10:07;;;;;;;11.03;9.00;;;25.80;47.90;;;28.44;34.37;101773.22;5035855;28;20278;-64
2023/06/12 08:12:34;;;;;;;9.20;7.67;;;25.90;48.50;;;28.62;33.84;101759.22;5044589;28;20615;-64
2023/06/12 08:15:02;;;;;;;11.87;8.13;;;26.00;48.20;;;28.91;33.06;101762.22;5044999;28;20713;-64
2023/06/12 08:17:29;;;;;;;9.70;8.83;;;26.10;47.70;;;29.44;32.03;101757.03;5036241;28;20631;-63
2023/06/12 08:19:57;;;;;;;13.90;8.53;;;26.30;46.80;;;30.27;31.23;101757.25;5035411;28;20218;-64
2023/06/12 08:22:25;;;;;;;8.67;7.97;;;26.60;46.60;;;31.40;29.41;101757.72;5036614;28;20358;-65
2023/06/12 08:24:52;;;;;;;9.30;8.20;;;27.00;46.30;;;32.44;28.20;101755.09;5035473;28;20309;-62
2023/06/12 08:27:19;;;;;;;9.23;8.27;;;27.60;44.80;;;33.41;26.83;101751.28;5054004;28;20190;-63
2023/06/12 08:29:46;;;;;;;8.50;7.80;;;28.30;43.30;;;34.23;25.52;101753.19;5054875;28;20273;-63
2023/06/12 08:32:13;;;;;;;8.17;7.43;;;28.90;40.90;;;34.91;24.36;101753.72;5054530;28;20232;-64
2023/06/12 08:34:41;;;;;;;8.77;7.97;;;29.60;39.40;;;35.48;23.52;101757.44;5054376;28;20620;-62
2023/06/12 08:37:08;;;;;;;8.70;7.83;;;30.20;38.30;;;35.97;23.55;101753.53;5054701;28;20217;-63
2023/06/12 08:39:36;;;;;;;7.77;6.90;;;30.70;37.20;;;36.55;21.94;101753.97;5053156;28;20200;-63
2023/06/12 08:42:08;;;;;;;8.55;7.93;;;31.20;35.70;;;36.83;22.57;101759.88;5054320;28;20214;-63
2023/06/12 08:44:35;;;;;;;8.52;7.82;;;31.70;34.60;;;36.38;21.77;101764.91;5053743;28;20218;-62
2023/06/12 08:47:04;;;;;;;9.13;8.27;;;31.90;33.30;;;35.61;22.72;101762.00;5054891;28;20190;-63
2023/06/12 08:49:32;;;;;;;9.27;8.30;;;31.90;32.80;;;34.70;23.15;101760.84;5053408;28;20210;-63
2023/06/12 08:52:01;;;;;;;8.33;7.63;;;31.60;32.40;;;33.95;24.44;101752.38;5056981;28;20681;-64
2023/06/12 08:54:29;;;;;;;8.60;7.80;;;31.30;33.40;;;33.42;24.89;101755.63;5055779;28;20269;-63
2023/06/12 08:56:59;;;;;;;9.10;8.20;;;31.00;34.00;;;33.46;25.50;101761.31;5054066;28;20277;-63
2023/06/12 08:59:26;;;;;;;8.63;7.83;;;30.60;34.80;;;33.83;24.34;101754.84;5055517;28;20228;-63
2023/06/12 09:01:56;;;;;;;11.63;10.53;;;30.40;34.60;;;34.16;24.61;101767.28;5052945;28;20201;-63
2023/06/12 09:04:48;;;;;;;9.43;8.53;;;30.40;35.10;;;35.40;23.65;101752.72;5054226;28;20213;-63
2023/06/12 09:07:20;;;;;;;8.93;7.50;;;30.70;35.20;;;36.64;22.52;101767.66;5053703;28;20233;-64
2023/06/12 09:09:47;;;;;;;8.60;7.63;;;31.20;34.60;;;37.46;21.37;101752.78;5052780;28;20277;-64
2023/06/12 09:12:16;;;;;;;14.90;7.03;;;31.70;33.40;;;38.00;20.41;101753.78;5053073;28;20239;-65
2023/06/12 09:14:45;;;;;;;8.77;8.07;;;32.20;32.60;;;38.16;20.50;101752.84;5043067;28;20321;-64
2023/06/12 09:17:13;;;;;;;13.00;7.88;;;32.60;31.50;;;38.73;19.57;101750.28;5035588;28;20249;-65
2023/06/12 09:19:42;;;;;;;8.20;7.50;;;33.10;31.00;;;39.55;19.14;101742.84;5034790;28;20521;-61
2023/06/12 09:22:10;;;;;;;8.98;7.97;;;33.60;31.00;;;40.50;18.68;101754.06;5034976;28;20616;-58
2023/06/12 09:24:38;;;;;;;7.63;6.93;;;34.10;30.00;;;40.59;17.41;101748.38;5034576;28;20268;-60
2023/06/12 09:27:06;;;;;;;8.27;6.78;;;34.60;27.80;;;39.42;17.29;101746.72;5053061;28;20244;-60
2023/06/12 09:29:38;;;;;;;7.88;7.13;;;34.70;26.90;;;38.54;18.65;101748.00;5052254;28;20197;-59
2023/06/12 09:32:10;;;;;;;7.72;6.93;;;34.60;27.10;;;38.32;19.45;101756.63;5053803;28;20182;-61
2023/06/12 09:34:38;;;;;;;7.55;6.88;;;34.50;28.00;;;38.22;19.49;101756.22;5053385;28;20694;-58
2023/06/12 09:37:08;;;;;;;8.50;7.80;;;34.30;27.90;;;38.19;18.88;101749.44;5053794;28;20210;-60
2023/06/12 09:39:35;;;;;;;8.77;7.70;;;34.20;27.30;;;38.58;18.52;101754.44;5054085;28;20277;-60
2023/06/12 09:42:03;;;;;;;17.70;8.32;;;34.20;27.20;;;38.90;18.30;101754.81;5052435;28;20216;-61
2023/06/12 09:44:30;;;;;;;10.25;7.28;;;34.20;27.20;;;38.87;18.32;101750.78;5052754;28;20674;-58
2023/06/12 09:47:04;;;;;;;7.88;7.07;;;34.30;27.30;;;39.67;17.63;101751.94;5035854;28;20215;-61
2023/06/12 09:49:35;;;;;;;6.40;5.78;;;34.50;27.40;;;40.77;17.51;101750.47;5033747;28;20216;-59
2023/06/12 09:52:07;;;;;;;7.80;7.10;;;34.80;27.30;;;41.56;16.54;101748.53;5034699;28;21002;-60
2023/06/12 09:54:36;;;;;;;7.18;6.65;;;35.20;26.80;;;41.93;15.71;101744.31;5052919;28;20316;-59
2023/06/12 09:57:08;;;;;;;6.93;6.25;;;35.60;25.90;;;42.30;15.09;101748.28;5052598;28;20263;-61
2023/06/12 09:59:37;;;;;;;6.50;5.90;;;36.00;25.30;;;42.38;14.31;101741.72;5052984;28;20190;-59
2023/06/12 10:02:14;;;;;;;8.43;5.90;;;36.20;24.10;;;42.14;14.33;101747.56;5046687;28;20280;-61
2023/06/12 10:04:56;;;;;;;7.50;6.80;;;36.30;23.30;;;41.78;15.17;101742.38;5043336;28;20297;-58
2023/06/12 10:07:28;;;;;;;8.07;7.18;;;36.40;23.50;;;40.74;15.38;101748.44;5032710;28;20205;-61
2023/06/12 10:09:56;;;;;;;11.40;7.20;;;36.30;23.30;;;40.02;15.79;101751.44;5032853;28;20226;-61
2023/06/12 10:12:25;;;;;;;9.30;6.75;;;36.10;23.60;;;39.34;16.37;101742.97;5032887;28;20231;-59
2023/06/12 10:14:53;;;;;;;7.63;6.93;;;35.70;23.90;;;39.20;16.75;101742.50;5032770;28;20214;-60
2023/06/12 10:17:22;;;;;;;7.25;6.55;;;35.30;23.90;;;39.51;16.12;101726.16;5033106;28;20190;-59
2023/06/12 10:19:54;;;;;;;7.00;6.30;;;35.10;24.20;;;40.23;14.92;101729.97;5034446;28;20194;-59